Time;durP1;ratioP1;P1;durP2;ratioP2;P2;SDS_P1;SDS_P2;PMS_P1;PMS_P2;Temp;Humidity;BMP_temperature;BMP_pressure;BME280_temperature;BME280_humidity;BME280_pressure;Samples;Min_cycle;Max_cycle;Signal;HPM_P1;HPM_P2
2021/08/22 00:00:43;;;;;;;;;4.25;4.25;;;;;20.26;62.85;101000.94;5096624;27;69921;-60
2021/08/22 00:03:08;;;;;;;;;4.25;4.25;;;;;20.24;62.94;101002.97;5096452;27;70311;-60
2021/08/22 00:05:33;;;;;;;;;5.00;4.25;;;;;20.23;62.97;101001.31;5096406;27;68911;-61
2021/08/22 00:07:59;;;;;;;;;6.00;5.00;;;;;20.23;63.10;101003.97;5096717;27;63043;-60
2021/08/22 00:10:24;;;;;;;;;6.00;5.00;;;;;20.22;62.92;101002.31;5096536;27;63784;-60
2021/08/22 00:12:49;;;;;;;;;5.00;4.00;;;;;20.20;62.94;101003.53;5097036;27;45279;-60
2021/08/22 00:15:15;;;;;;;;;6.00;4.25;;;;;20.19;62.72;101005.38;5096712;27;57623;-60
2021/08/22 00:17:40;;;;;;;;;4.00;4.00;;;;;20.20;63.22;101009.69;5096803;27;45371;-61
2021/08/22 00:20:06;;;;;;;;;5.00;5.00;;;;;20.20;63.32;100996.34;5078921;27;45585;-60
2021/08/22 00:22:31;;;;;;;;;4.00;3.50;;;;;20.21;63.05;100998.00;5096825;27;46147;-59
2021/08/22 00:24:57;;;;;;;;;5.00;5.00;;;;;20.20;63.70;100988.34;5077592;27;67857;-60
2021/08/22 00:27:22;;;;;;;;;5.00;5.00;;;;;20.19;63.48;100991.22;5096414;27;61872;-61
2021/08/22 00:29:48;;;;;;;;;3.00;3.00;;;;;20.20;63.90;100996.34;5096870;27;47458;-59
2021/08/22 00:32:13;;;;;;;;;5.00;4.00;;;;;20.19;64.13;100994.69;5096998;27;45781;-60
2021/08/22 00:34:38;;;;;;;;;5.50;5.50;;;;;20.19;63.92;100997.38;5096587;27;59079;-61
2021/08/22 00:37:04;;;;;;;;;4.50;4.00;;;;;20.20;64.03;101000.88;5096206;27;65600;-60
2021/08/22 00:39:29;;;;;;;;;5.75;4.75;;;;;20.20;63.95;101007.03;5096137;27;65534;-60
2021/08/22 00:41:55;;;;;;;;;6.50;5.25;;;;;20.20;63.95;101004.34;5096603;27;46077;-60
2021/08/22 00:44:21;;;;;;;;;6.00;4.75;;;;;20.21;64.26;101003.34;5096754;27;45903;-60
2021/08/22 00:46:47;;;;;;;;;5.25;4.75;;;;;20.22;64.41;101009.53;5096644;27;47359;-60
2021/08/22 00:49:12;;;;;;;;;7.25;4.25;;;;;20.21;64.29;101003.34;5078641;27;45486;-61
2021/08/22 00:51:39;;;;;;;;;4.25;4.25;;;;;20.24;64.33;100996.81;5095953;27;65017;-62
2021/08/22 00:54:04;;;;;;;;;7.50;5.00;;;;;20.26;64.33;101002.78;5078470;27;47488;-61
2021/08/22 00:56:31;;;;;;;;;6.00;6.00;;;;;20.28;64.41;101012.25;5096742;27;45317;-59
2021/08/22 00:58:56;;;;;;;;;7.00;5.00;;;;;20.30;64.45;101007.56;5096997;27;45491;-60
2021/08/22 01:01:22;;;;;;;;;5.75;4.00;;;;;20.35;64.51;101009.66;5095769;27;70156;-60
2021/08/22 01:04:06;;;;;;;;;8.00;5.25;;;;;20.39;64.87;101012.78;5096628;27;45844;-61
2021/08/22 01:06:59;;;;;;;;;5.75;5.25;;;;;20.41;64.57;101011.56;5061814;27;45359;-60
2021/08/22 01:09:39;;;;;;;;;5.50;5.00;;;;;20.44;64.63;101008.50;5062305;27;45428;-61
2021/08/22 01:12:16;;;;;;;;;6.50;5.00;;;;;20.46;64.87;101008.34;5061331;27;50235;-59
2021/08/22 01:14:46;;;;;;;;;6.00;6.00;;;;;20.48;64.27;101008.97;5078147;27;47148;-60
2021/08/22 01:17:11;;;;;;;;;11.50;8.75;;;;;20.51;64.36;101005.91;5061460;27;45304;-60
2021/08/22 01:20:03;;;;;;;;;5.00;5.00;;;;;20.52;64.78;101004.91;5078392;27;45390;-60
2021/08/22 01:22:29;;;;;;;;;5.75;5.00;;;;;20.55;64.39;101009.88;5096155;27;45362;-61
2021/08/22 01:24:55;;;;;;;;;3.00;3.00;;;;;20.55;64.22;101017.88;5077184;27;71671;-60
2021/08/22 01:27:20;;;;;;;;;5.25;4.25;;;;;20.56;64.23;101016.84;5077335;27;69199;-60
2021/08/22 01:30:00;;;;;;;;;5.25;5.25;;;;;20.57;64.46;101013.16;5062809;27;62824;-60
2021/08/22 01:32:38;;;;;;;;;5.75;5.75;;;;;20.59;63.67;101018.31;5081657;27;45404;-60
2021/08/22 01:35:05;;;;;;;;;8.25;5.00;;;;;20.61;63.62;101016.28;5080594;27;45852;-60
2021/08/22 01:37:31;;;;;;;;;5.00;5.00;;;;;20.63;63.59;101016.09;5081370;27;45361;-60
2021/08/22 01:39:56;;;;;;;;;6.25;5.00;;;;;20.65;63.12;101016.72;5081469;27;45383;-60
2021/08/22 01:42:21;;;;;;;;;7.75;6.00;;;;;20.65;62.72;101028.22;5063734;27;71775;-60
2021/08/22 01:44:47;;;;;;;;;4.50;4.50;;;;;20.65;62.66;101027.41;5080378;27;72612;-60
2021/08/22 01:47:12;;;;;;;;;5.50;5.00;;;;;20.64;62.16;101023.91;5099414;27;47971;-60
2021/08/22 01:49:39;;;;;;;;;5.50;5.00;;;;;20.65;62.02;101032.75;5099638;27;45377;-59
2021/08/22 01:52:07;;;;;;;;;5.00;4.00;;;;;20.67;61.72;101030.69;5063595;27;45355;-60
2021/08/22 01:54:33;;;;;;;;;5.00;5.00;;;;;20.66;61.39;101026.41;5099621;27;45365;-59
2021/08/22 01:56:58;;;;;;;;;4.00;3.75;;;;;20.65;61.80;101036.22;5080436;27;64393;-60
2021/08/22 01:59:23;;;;;;;;;5.00;5.00;;;;;20.67;61.53;101022.69;5098575;27;69058;-59
2021/08/22 02:01:49;;;;;;;;;6.00;4.75;;;;;20.67;61.45;101025.34;5098360;27;73783;-60
2021/08/22 02:04:44;;;;;;;;;5.75;5.00;;;;;20.65;61.45;101022.06;5080166;27;70930;-60
2021/08/22 02:07:10;;;;;;;;;5.25;4.25;;;;;20.65;61.06;101024.75;5065661;27;45450;-60
2021/08/22 02:09:48;;;;;;;;;5.00;3.00;;;;;20.64;61.06;101023.91;5080940;27;45552;-60
2021/08/22 02:12:14;;;;;;;;;3.75;3.75;;;;;20.64;60.86;101023.09;5080784;27;46223;-60
2021/08/22 02:14:42;;;;;;;;;5.00;4.25;;;;;20.65;60.94;101030.09;5080897;27;45722;-60
2021/08/22 02:17:08;;;;;;;;;6.75;5.00;;;;;20.64;60.82;101028.44;5081032;27;45457;-60
2021/08/22 02:19:33;;;;;;;;;3.25;3.25;;;;;20.64;60.73;101031.91;5080287;27;59088;-61
2021/08/22 02:21:58;;;;;;;;;5.00;3.00;;;;;20.64;60.79;101023.09;5062533;27;74643;-60
2021/08/22 02:24:24;;;;;;;;;4.00;4.00;;;;;20.62;60.67;101031.28;5063837;27;45449;-60
2021/08/22 02:26:49;;;;;;;;;3.75;3.00;;;;;20.60;60.35;101028.81;5099088;27;45598;-59
2021/08/22 02:29:15;;;;;;;;;4.75;4.75;;;;;20.59;60.57;101029.81;5080770;27;45434;-60
2021/08/22 02:31:40;;;;;;;;;4.50;4.50;;;;;20.57;60.38;101029.19;5097872;27;68502;-60
2021/08/22 02:34:05;;;;;;;;;5.50;5.00;;;;;20.58;60.89;101035.34;5097812;27;73083;-61
2021/08/22 02:36:31;;;;;;;;;6.25;5.50;;;;;20.56;60.58;101040.88;5098975;27;45334;-60
2021/08/22 02:38:56;;;;;;;;;3.00;3.00;;;;;20.55;60.69;101036.56;5098763;27;45288;-60
2021/08/22 02:41:22;;;;;;;;;4.00;4.00;;;;;20.54;61.07;101034.91;5098786;27;45405;-59
2021/08/22 02:43:47;;;;;;;;;4.25;3.25;;;;;20.54;61.12;101036.72;5098675;27;45470;-60
2021/08/22 02:46:12;;;;;;;;;7.75;7.00;;;;;20.53;60.76;101033.25;5097798;27;67636;-60
2021/08/22 02:48:38;;;;;;;;;5.25;5.00;;;;;20.53;61.01;101035.91;5098194;27;59227;-60
2021/08/22 02:51:03;;;;;;;;;4.50;4.00;;;;;20.54;61.02;101034.06;5098168;27;54711;-59
2021/08/22 02:53:29;;;;;;;;;4.25;4.25;;;;;20.52;60.59;101030.75;5098537;27;45281;-59
2021/08/22 02:55:54;;;;;;;;;5.75;4.00;;;;;20.51;60.70;101027.28;5098515;27;45221;-60
2021/08/22 02:58:20;;;;;;;;;3.50;3.50;;;;;20.50;60.75;101032.78;5098656;27;45221;-60
2021/08/22 03:00:45;;;;;;;;;5.25;4.75;;;;;20.49;60.78;101031.97;5097615;27;45237;-60
2021/08/22 03:03:11;;;;;;;;;5.75;5.75;;;;;20.49;61.07;101028.47;5097379;27;71123;-60
2021/08/22 03:05:36;;;;;;;;;5.25;5.25;;;;;20.49;60.78;101028.47;5098246;27;45220;-60
2021/08/22 03:08:02;;;;;;;;;3.50;3.50;;;;;20.46;60.10;101027.81;5097288;27;66042;-60
2021/08/22 03:10:27;;;;;;;;;4.50;4.50;;;;;20.44;60.38;101027.19;5078809;27;46168;-60
2021/08/22 03:12:53;;;;;;;;;5.75;4.00;;;;;20.44;60.22;101024.53;5096901;27;69290;-60
2021/08/22 03:15:18;;;;;;;;;3.75;3.75;;;;;20.42;59.93;101020.41;5097265;27;69176;-60
2021/08/22 03:17:43;;;;;;;;;5.50;4.25;;;;;20.41;60.00;101024.09;5097120;27;69120;-60
2021/08/22 03:20:09;;;;;;;;;5.50;4.50;;;;;20.40;59.71;101025.09;5097535;27;58793;-60
2021/08/22 03:22:34;;;;;;;;;5.00;5.00;;;;;20.38;60.20;101024.47;5097742;27;45480;-59
2021/08/22 03:25:00;;;;;;;;;8.25;5.00;;;;;20.35;60.36;101025.69;5097363;27;60213;-60
2021/08/22 03:27:25;;;;;;;;;6.00;6.00;;;;;20.35;60.25;101028.34;5097887;27;45449;-59
2021/08/22 03:29:51;;;;;;;;;5.50;4.00;;;;;20.35;59.82;101020.34;5097697;27;46748;-60
2021/08/22 03:32:16;;;;;;;;;5.00;5.00;;;;;20.30;59.75;101015.56;5096684;27;72146;-61
2021/08/22 03:34:42;;;;;;;;;5.00;4.00;;;;;20.24;59.58;101026.97;5097015;27;66814;-60
2021/08/22 03:37:07;;;;;;;;;5.75;5.00;;;;;20.17;59.49;101018.06;5096720;27;68290;-59
2021/08/22 03:39:32;;;;;;;;;5.75;5.25;;;;;20.14;59.60;101021.09;5097483;27;46023;-61
2021/08/22 03:41:58;;;;;;;;;5.75;5.00;;;;;20.09;59.22;101020.88;5097714;27;45377;-60
2021/08/22 03:44:23;;;;;;;;;5.00;4.25;;;;;20.05;59.18;101032.94;5097235;27;54779;-60
2021/08/22 03:46:48;;;;;;;;;3.25;3.00;;;;;20.00;58.39;101023.66;5097120;27;57259;-61
2021/08/22 03:49:14;;;;;;;;;5.25;4.00;;;;;19.97;58.64;101025.84;5097580;27;46135;-59
2021/08/22 03:51:39;;;;;;;;;6.75;5.50;;;;;19.92;58.33;101031.75;5096136;27;63798;-60
2021/08/22 03:54:05;;;;;;;;;7.50;4.75;;;;;19.89;58.71;101021.44;5097665;27;45365;-59
2021/08/22 03:56:30;;;;;;;;;6.75;4.75;;;;;19.87;58.48;101034.09;5097447;27;45235;-59
2021/08/22 03:58:56;;;;;;;;;7.00;4.25;;;;;19.84;58.42;101029.16;5096385;27;72131;-61
2021/08/22 04:01:21;;;;;;;;;6.00;4.75;;;;;19.79;58.69;101027.03;5096641;27;70842;-59
2021/08/22 04:03:47;;;;;;;;;7.00;5.50;;;;;19.75;58.66;101031.09;5096122;27;45208;-61
2021/08/22 04:06:12;;;;;;;;;4.25;3.25;;;;;19.70;58.43;101023.63;5096561;27;45243;-60
2021/08/22 04:08:39;;;;;;;;;4.75;4.75;;;;;19.68;58.70;101030.97;5097159;27;45920;-60
2021/08/22 04:11:04;;;;;;;;;5.75;4.50;;;;;19.64;58.96;101029.69;5096399;27;45868;-59
2021/08/22 04:13:30;;;;;;;;;5.25;5.25;;;;;19.61;59.25;101035.38;5097215;27;45252;-59
2021/08/22 04:15:55;;;;;;;;;4.00;3.25;;;;;19.60;59.35;101033.78;5097345;27;45314;-60
2021/08/22 04:18:21;;;;;;;;;7.75;5.75;;;;;19.57;59.71;101032.28;5096025;27;45362;-59
2021/08/22 04:20:46;;;;;;;;;5.75;5.00;;;;;19.55;59.61;101041.47;5096815;27;45503;-60
2021/08/22 04:23:11;;;;;;;;;8.00;6.00;;;;;19.52;59.62;101040.00;5096140;27;67659;-60
2021/08/22 04:25:37;;;;;;;;;7.00;5.00;;;;;19.50;59.34;101049.19;5096096;27;45488;-59
2021/08/22 04:28:04;;;;;;;;;5.50;3.00;;;;;19.49;59.54;101040.34;5096938;27;45417;-60
2021/08/22 04:30:30;;;;;;;;;5.00;5.00;;;;;19.47;59.49;101046.91;5078812;27;45470;-59
2021/08/22 04:32:55;;;;;;;;;5.50;5.50;;;;;19.45;59.45;101043.59;5096609;27;46384;-60
2021/08/22 04:35:20;;;;;;;;;8.75;5.00;;;;;19.43;59.45;101043.75;5095989;27;70450;-60
2021/08/22 04:37:46;;;;;;;;;7.75;5.00;;;;;19.41;59.50;101035.97;5095994;27;67847;-60
2021/08/22 04:40:12;;;;;;;;;8.50;6.00;;;;;19.40;59.46;101054.78;5097073;27;45401;-60
2021/08/22 04:42:37;;;;;;;;;5.50;5.50;;;;;19.38;59.17;101048.78;5097143;27;45241;-59
2021/08/22 04:45:03;;;;;;;;;6.00;5.50;;;;;19.36;59.36;101049.00;5096938;27;45286;-60
2021/08/22 04:47:28;;;;;;;;;8.00;5.00;;;;;19.36;59.20;101054.31;5096501;27;48510;-60
2021/08/22 04:49:54;;;;;;;;;6.50;5.00;;;;;19.33;58.97;101051.22;5095904;27;65680;-60
2021/08/22 04:52:19;;;;;;;;;4.25;4.25;;;;;19.30;59.36;101048.91;5095843;27;45388;-60
2021/08/22 04:54:45;;;;;;;;;5.75;4.50;;;;;19.28;59.29;101046.41;5096261;27;51442;-59
2021/08/22 04:57:10;;;;;;;;;6.00;4.25;;;;;19.27;59.31;101060.72;5095552;27;71792;-60
2021/08/22 04:59:36;;;;;;;;;5.25;5.25;;;;;19.28;59.00;101059.72;5096536;27;45426;-60
2021/08/22 05:02:01;;;;;;;;;8.00;4.00;;;;;19.26;59.39;101056.41;5077499;27;63321;-60
2021/08/22 05:04:28;;;;;;;;;5.75;4.25;;;;;19.25;59.03;101062.75;5097535;27;67330;-60
2021/08/22 05:06:54;;;;;;;;;5.50;4.00;;;;;19.24;59.12;101067.25;5100186;27;46347;-60
2021/08/22 05:09:19;;;;;;;;;4.25;3.50;;;;;19.23;58.97;101065.59;5100029;27;45224;-60
2021/08/22 05:11:45;;;;;;;;;6.25;3.25;;;;;19.21;59.22;101067.63;5100064;27;45222;-60
2021/08/22 05:14:10;;;;;;;;;4.00;4.00;;;;;19.21;59.31;101072.09;5099212;27;65959;-60
2021/08/22 05:16:36;;;;;;;;;5.00;4.00;;;;;19.21;58.96;101069.44;5099793;27;45985;-60
2021/08/22 05:19:01;;;;;;;;;6.50;5.25;;;;;19.21;58.72;101077.44;5099309;27;64234;-60
2021/08/22 05:21:27;;;;;;;;;3.25;3.25;;;;;19.21;58.73;101072.94;5100215;27;45485;-59
2021/08/22 05:23:53;;;;;;;;;6.75;4.00;;;;;19.20;58.68;101065.13;5100170;27;45323;-60
2021/08/22 05:26:18;;;;;;;;;4.50;4.50;;;;;19.19;58.77;101068.78;5081387;27;51960;-60
2021/08/22 05:28:44;;;;;;;;;4.00;4.00;;;;;19.20;58.56;101075.78;5099101;27;59985;-60
2021/08/22 05:31:09;;;;;;;;;4.00;4.00;;;;;19.19;58.28;101082.13;5098843;27;66331;-60
2021/08/22 05:33:34;;;;;;;;;4.25;4.00;;;;;19.18;58.31;101083.13;5098903;27;65410;-59
2021/08/22 05:36:37;;;;;;;;;5.75;4.00;;;;;19.16;58.61;101072.66;5099690;27;45334;-60
2021/08/22 05:39:02;;;;;;;;;4.50;4.50;;;;;19.15;57.98;101081.66;5066648;27;45337;-60
2021/08/22 05:41:27;;;;;;;;;6.00;5.25;;;;;19.13;58.11;101081.81;5099693;27;45288;-60
2021/08/22 05:43:53;;;;;;;;;5.50;4.75;;;;;19.12;58.23;101077.50;5098859;27;63377;-60
2021/08/22 05:46:19;;;;;;;;;3.00;2.50;;;;;19.13;58.12;101087.16;5099393;27;47123;-60
2021/08/22 05:48:44;;;;;;;;;4.75;4.00;;;;;19.12;57.95;101092.66;5099498;27;45479;-60
2021/08/22 05:51:20;;;;;;;;;4.00;4.00;;;;;19.10;58.02;101086.69;5098341;27;62684;-59
2021/08/22 05:53:45;;;;;;;;;5.00;4.50;;;;;19.09;58.24;101096.50;5082038;27;45476;-60
2021/08/22 05:56:10;;;;;;;;;7.50;5.00;;;;;19.09;57.94;101095.69;5099109;27;45381;-60
2021/08/22 05:58:36;;;;;;;;;4.50;4.50;;;;;19.09;58.26;101096.50;5099229;27;45409;-58
2021/08/22 06:01:02;;;;;;;;;4.75;4.25;;;;;19.09;58.54;101099.16;5098540;27;45420;-60
2021/08/22 06:03:27;;;;;;;;;3.75;3.75;;;;;19.10;58.68;101100.00;5098216;27;45406;-60
2021/08/22 06:05:53;;;;;;;;;3.00;2.75;;;;;19.11;58.31;101099.81;5098033;27;75571;-60
2021/08/22 06:08:19;;;;;;;;;4.00;4.00;;;;;19.11;58.24;101099.81;5080830;27;45837;-60
2021/08/22 06:10:44;;;;;;;;;5.75;5.00;;;;;19.12;58.29;101096.16;5099274;27;45457;-60
2021/08/22 06:13:09;;;;;;;;;5.75;3.75;;;;;19.12;58.62;101098.00;5098204;27;65020;-60
2021/08/22 06:15:35;;;;;;;;;5.25;4.00;;;;;19.12;58.74;101098.81;5079465;27;70022;-59
2021/08/22 06:18:00;;;;;;;;;5.00;4.75;;;;;19.16;58.26;101109.94;5098786;27;45341;-61
2021/08/22 06:20:26;;;;;;;;;5.25;3.00;;;;;19.17;58.18;101110.75;5098444;27;50886;-59
2021/08/22 06:22:51;;;;;;;;;4.00;4.00;;;;;19.19;57.90;101112.25;5098875;27;45436;-60
2021/08/22 06:25:16;;;;;;;;;4.75;4.00;;;;;19.21;58.37;101115.56;5098398;27;53338;-59
2021/08/22 06:27:42;;;;;;;;;5.50;5.50;;;;;19.22;58.55;101121.72;5098060;27;62563;-60
2021/08/22 06:30:08;;;;;;;;;3.50;3.00;;;;;19.23;58.11;101118.03;5098431;27;47735;-60
2021/08/22 06:32:33;;;;;;;;;4.00;4.00;;;;;19.24;58.35;101120.53;5098546;27;45242;-60
2021/08/22 06:34:59;;;;;;;;;4.00;3.00;;;;;19.27;58.38;101124.66;5080040;27;50282;-60
2021/08/22 06:37:24;;;;;;;;;4.50;4.00;;;;;19.31;58.36;101122.50;5098504;27;45220;-59
2021/08/22 06:39:49;;;;;;;;;3.50;3.50;;;;;19.33;58.20;101118.63;5079435;27;69089;-60
2021/08/22 06:42:15;;;;;;;;;5.75;3.25;;;;;19.36;58.25;101120.94;5098595;27;45276;-60
2021/08/22 06:44:41;;;;;;;;;9.50;7.75;;;;;19.40;58.23;101119.56;5098342;27;45244;-62
2021/08/22 06:47:07;;;;;;;;;4.00;4.00;;;;;19.46;58.04;101120.66;5098356;27;45938;-60
2021/08/22 06:49:33;;;;;;;;;4.50;3.50;;;;;19.52;57.88;101121.81;5097713;27;45400;-60
2021/08/22 06:51:58;;;;;;;;;6.25;4.25;;;;;19.57;57.58;101135.41;5080242;27;45319;-60
2021/08/22 06:54:23;;;;;;;;;4.00;4.00;;;;;19.62;57.69;101126.88;5097105;27;73847;-58
2021/08/22 06:56:51;;;;;;;;;3.00;2.75;;;;;19.68;57.53;101140.28;5097423;27;69472;-59
2021/08/22 06:59:17;;;;;;;;;4.00;4.00;;;;;19.75;57.32;101137.75;5098188;27;45440;-60
2021/08/22 07:01:42;;;;;;;;;4.25;4.00;;;;;19.79;56.88;101139.03;5097986;27;50006;-61
2021/08/22 07:04:08;;;;;;;;;5.00;4.00;;;;;19.86;56.77;101155.13;5097146;27;71030;-60
2021/08/22 07:06:33;;;;;;;;;8.50;2.25;;;;;19.92;56.31;101151.75;5097222;27;66475;-60
2021/08/22 07:08:58;;;;;;;;;6.50;3.00;;;;;19.96;56.36;101150.38;5097150;27;67613;-60
2021/08/22 07:11:24;;;;;;;;;5.00;3.75;;;;;20.01;56.15;101153.31;5097271;27;63074;-60
2021/08/22 07:13:49;;;;;;;;;4.00;2.25;;;;;20.11;56.25;101146.91;5096684;27;72976;-60
2021/08/22 07:16:14;;;;;;;;;8.00;6.00;;;;;20.21;55.79;101147.41;5097231;27;59781;-59
2021/08/22 07:18:41;;;;;;;;;3.00;3.00;;;;;20.30;55.57;101146.31;5096963;27;69389;-60
2021/08/22 07:21:07;;;;;;;;;5.00;3.25;;;;;20.35;55.73;101145.78;5097797;27;45505;-61
2021/08/22 07:23:33;;;;;;;;;4.50;3.50;;;;;20.40;55.14;101150.53;5097872;27;46109;-61
2021/08/22 07:25:58;;;;;;;;;3.00;3.00;;;;;20.41;55.64;101152.19;5097091;27;45355;-61
2021/08/22 07:28:23;;;;;;;;;4.00;2.25;;;;;20.41;55.23;101147.66;5096950;27;45370;-61
2021/08/22 07:30:49;;;;;;;;;6.50;5.00;;;;;20.40;55.44;101153.22;5096973;27;62788;-61
2021/08/22 07:33:14;;;;;;;;;3.00;3.00;;;;;20.38;55.25;101164.09;5096319;27;74580;-61
2021/08/22 07:35:39;;;;;;;;;7.25;4.00;;;;;20.38;55.58;101168.56;5096902;27;58371;-61
2021/08/22 07:38:05;;;;;;;;;8.00;3.00;;;;;20.36;55.55;101162.59;5096721;27;67585;-60
2021/08/22 07:40:30;;;;;;;;;6.00;3.00;;;;;20.33;55.46;101166.47;5096826;27;63185;-61
2021/08/22 07:42:56;;;;;;;;;4.25;2.75;;;;;20.31;55.22;101163.97;5096369;27;73710;-61
2021/08/22 07:45:21;;;;;;;;;5.00;3.75;;;;;20.34;55.57;101168.13;5097458;27;45234;-61
2021/08/22 07:47:46;;;;;;;;;3.00;3.00;;;;;20.37;55.46;101164.25;5096844;27;45440;-60
2021/08/22 07:50:12;;;;;;;;;3.75;3.75;;;;;20.41;55.51;101170.88;5096645;27;64777;-62
2021/08/22 07:52:37;;;;;;;;;3.00;3.00;;;;;20.46;55.23;101171.16;5077877;27;72897;-60
2021/08/22 07:55:03;;;;;;;;;5.00;4.00;;;;;20.52;55.65;101175.75;5096939;27;45431;-61
2021/08/22 07:57:30;;;;;;;;;4.00;3.75;;;;;20.58;55.61;101168.81;5096336;27;45322;-61
2021/08/22 07:59:55;;;;;;;;;4.00;4.00;;;;;20.63;55.04;101169.09;5096974;27;50427;-59
2021/08/22 08:02:21;;;;;;;;;6.25;5.00;;;;;20.68;54.82;101173.84;5095987;27;74689;-61
2021/08/22 08:04:46;;;;;;;;;3.75;3.75;;;;;20.71;54.89;101174.31;5097110;27;45387;-61
2021/08/22 08:07:12;;;;;;;;;3.25;2.00;;;;;20.74;54.22;101167.75;5096308;27;69425;-61
2021/08/22 08:09:37;;;;;;;;;2.50;2.25;;;;;20.78;54.37;101173.59;5097146;27;45409;-61
2021/08/22 08:12:03;;;;;;;;;4.75;2.00;;;;;20.82;53.86;101180.22;5096714;27;50646;-60
2021/08/22 08:14:28;;;;;;;;;4.75;4.00;;;;;20.83;53.71;101187.22;5097062;27;45380;-58
2021/08/22 08:16:53;;;;;;;;;4.00;2.75;;;;;20.87;53.83;101181.31;5096093;27;69368;-61
2021/08/22 08:19:19;;;;;;;;;3.50;3.25;;;;;21.01;53.52;101190.28;5062103;27;45269;-62
2021/08/22 08:21:44;;;;;;;;;4.50;4.00;;;;;21.18;53.96;101188.22;5096218;27;45438;-61
2021/08/22 08:24:09;;;;;;;;;4.00;3.00;;;;;21.34;53.08;101191.63;5096190;27;67138;-61
2021/08/22 08:26:36;;;;;;;;;3.00;3.00;;;;;21.46;53.21;101192.78;5096814;27;49422;-61
2021/08/22 08:29:01;;;;;;;;;2.25;2.25;;;;;21.55;52.48;101182.75;5095907;27;45244;-60
2021/08/22 08:31:27;;;;;;;;;2.25;2.00;;;;;21.65;51.81;101193.19;5096937;27;46040;-61
2021/08/22 08:33:52;;;;;;;;;3.25;2.25;;;;;21.73;52.24;101189.53;5095944;27;69335;-61
2021/08/22 08:36:17;;;;;;;;;2.00;2.00;;;;;21.80;51.92;101187.72;5096139;27;69401;-61
2021/08/22 08:38:43;;;;;;;;;3.50;2.50;;;;;21.89;51.72;101191.06;5098806;27;45547;-61
2021/08/22 08:41:08;;;;;;;;;4.00;3.00;;;;;21.95;50.94;101195.63;5099607;27;73957;-61
2021/08/22 08:43:34;;;;;;;;;3.75;3.00;;;;;21.98;51.00;101195.25;5099883;27;64888;-61
2021/08/22 08:46:17;;;;;;;;;6.50;4.00;;;;;21.96;51.25;101191.94;5099848;27;63704;-61
2021/08/22 08:49:00;;;;;;;;;5.00;3.00;;;;;21.92;50.76;101198.69;5067361;27;45182;-61
2021/08/22 08:51:57;;;;;;;;;6.00;3.00;;;;;21.87;51.75;101209.16;5100190;27;50009;-60
2021/08/22 08:54:29;;;;;;;;;4.00;3.00;;;;;21.87;51.01;101206.47;5065415;27;45214;-61
2021/08/22 08:56:56;;;;;;;;;3.00;3.00;;;;;21.84;50.89;101201.53;5099118;27;45263;-61
2021/08/22 08:59:22;;;;;;;;;3.00;3.00;;;;;21.80;50.90;101203.78;5100189;27;45461;-61
2021/08/22 09:01:47;;;;;;;;;3.75;3.25;;;;;21.77;50.78;101213.00;5099921;27;46035;-62
2021/08/22 09:04:21;;;;;;;;;2.25;2.25;;;;;21.83;50.66;101210.56;5099265;27;65914;-61
2021/08/22 09:07:20;;;;;;;;;2.75;2.75;;;;;21.89;50.68;101201.75;5100189;27;45254;-61
2021/08/22 09:09:55;;;;;;;;;4.00;4.00;;;;;21.98;51.19;101203.28;5100242;27;45355;-61
2021/08/22 09:12:44;;;;;;;;;3.00;3.00;;;;;22.11;50.94;101212.41;5099216;27;46208;-62
2021/08/22 09:15:44;;;;;;;;;3.00;3.00;;;;;22.28;50.91;101208.38;5099984;27;45793;-60
2021/08/22 09:18:27;;;;;;;;;5.50;3.25;;;;;22.44;49.85;101211.78;5100203;27;45363;-61
2021/08/22 09:21:30;;;;;;;;;4.00;2.25;;;;;22.55;50.05;101207.72;5099853;27;45220;-61
2021/08/22 09:24:32;;;;;;;;;5.00;3.00;;;;;22.64;49.07;101215.41;5099930;27;45189;-62
2021/08/22 09:27:35;;;;;;;;;2.75;2.00;;;;;22.74;49.50;101206.97;5099949;27;45425;-61
2021/08/22 09:30:38;;;;;;;;;3.00;3.00;;;;;22.83;48.38;101203.09;5099826;27;45408;-61
2021/08/22 09:33:40;;;;;;;;;3.00;3.00;;;;;22.85;48.68;101205.56;5099644;27;45368;-62
2021/08/22 09:36:24;;;;;;;;;3.00;3.00;;;;;22.86;48.62;101212.56;5099494;27;46203;-60
2021/08/22 09:39:26;;;;;;;;;4.50;3.00;;;;;22.87;48.18;101214.22;5099483;27;45487;-61
2021/08/22 09:42:29;;;;;;;;;4.00;3.00;;;;;22.86;48.17;101209.09;5099601;27;45322;-61
2021/08/22 09:45:51;;;;;;;;;9.75;8.50;;;;;22.90;48.71;101210.34;5099788;27;45244;-61
2021/08/22 09:48:47;;;;;;;;;3.50;3.50;;;;;22.94;48.04;101215.06;5036642;28;45282;-62
2021/08/22 09:51:48;;;;;;;;;3.00;2.00;;;;;22.97;47.52;101214.69;5035988;28;45787;-61
2021/08/22 09:54:44;;;;;;;;;2.00;2.00;;;;;23.00;47.44;101204.59;5063450;27;45591;-62
2021/08/22 09:57:34;;;;;;;;;2.00;2.00;;;;;22.99;47.82;101206.44;5099440;27;45509;-58
2021/08/22 10:00:08;;;;;;;;;3.50;3.25;;;;;22.95;47.89;101211.38;5099371;27;45465;-61
2021/08/22 10:02:57;;;;;;;;;1.75;1.75;;;;;22.90;47.32;101216.50;5098503;27;45245;-61
2021/08/22 10:05:31;;;;;;;;;3.00;1.50;;;;;22.86;47.24;101215.25;5097024;27;45310;-61
2021/08/22 10:08:28;;;;;;;;;3.00;2.00;;;;;22.81;47.57;101217.72;5098624;27;45291;-61
2021/08/22 10:11:00;;;;;;;;;2.00;2.00;;;;;22.75;47.87;101218.53;5096825;27;45288;-62
2021/08/22 10:13:26;;;;;;;;;4.25;3.25;;;;;22.70;47.79;101221.00;5080020;27;45757;-61
2021/08/22 10:15:52;;;;;;;;;2.00;2.00;;;;;22.64;48.96;101220.75;5098447;27;45682;-62
2021/08/22 10:18:26;;;;;;;;;2.75;2.00;;;;;22.58;49.29;101220.72;5080169;27;45566;-62
2021/08/22 10:20:53;;;;;;;;;2.75;2.75;;;;;22.50;49.12;101221.72;5098687;27;46021;-61
2021/08/22 10:23:43;;;;;;;;;3.00;3.00;;;;;22.39;48.94;101215.88;5080280;27;46024;-61
2021/08/22 10:26:27;;;;;;;;;2.00;2.00;;;;;22.39;49.49;101212.38;5093679;27;45431;-62
2021/08/22 10:29:00;;;;;;;;;5.25;3.00;;;;;22.41;49.63;101210.31;5096692;27;45450;-61
2021/08/22 10:31:50;;;;;;;;;3.00;2.50;;;;;22.48;49.68;101199.66;5095479;27;46928;-61
2021/08/22 10:34:21;;;;;;;;;2.00;0.75;;;;;22.62;49.19;101201.38;5096958;27;45828;-62
2021/08/22 10:36:47;;;;;;;;;3.00;3.00;;;;;22.80;48.56;101205.34;5098277;27;45374;-62
2021/08/22 10:39:22;;;;;;;;;2.00;2.00;;;;;23.02;48.38;101202.53;5079943;27;45549;-61
2021/08/22 10:41:47;;;;;;;;;2.00;2.00;;;;;23.22;47.16;101195.38;5095739;27;46089;-62
2021/08/22 10:44:34;;;;;;;;;1.00;1.00;;;;;23.39;46.38;101200.34;5079611;27;45757;-62
2021/08/22 10:47:01;;;;;;;;;1.00;1.00;;;;;23.54;46.34;101195.59;5095750;27;45299;-62
2021/08/22 10:49:52;;;;;;;;;1.75;1.75;;;;;23.77;46.06;101201.56;5079470;27;46532;-61
2021/08/22 10:52:27;;;;;;;;;3.00;1.25;;;;;24.00;45.25;101207.38;5095773;27;45250;-62
2021/08/22 10:55:10;;;;;;;;;2.25;2.25;;;;;24.20;44.25;101206.47;5095704;27;45312;-62
2021/08/22 10:57:41;;;;;;;;;2.50;1.75;;;;;24.29;43.88;101204.41;5080206;27;45271;-61
2021/08/22 11:00:22;;;;;;;;;2.50;2.00;;;;;24.29;44.32;101210.59;5098161;27;45383;-61
2021/08/22 11:03:08;;;;;;;;;2.00;2.00;;;;;24.31;43.98;101213.06;5095774;27;45664;-62
2021/08/22 11:05:35;;;;;;;;;3.75;2.00;;;;;24.32;44.16;101208.50;5082749;27;45398;-62
2021/08/22 11:08:16;;;;;;;;;1.25;1.25;;;;;24.36;44.49;101207.06;5098027;27;45497;-62
2021/08/22 11:11:04;;;;;;;;;2.00;2.00;;;;;24.50;43.79;101199.75;5079654;27;45320;-61
2021/08/22 11:13:32;;;;;;;;;2.25;2.00;;;;;24.67;44.05;101200.94;5079410;27;46960;-61
2021/08/22 11:16:07;;;;;;;;;1.50;1.50;;;;;24.87;43.70;101195.50;5097512;27;47380;-61
2021/08/22 11:18:33;;;;;;;;;1.00;1.00;;;;;25.12;43.25;101197.41;5097458;27;45983;-61
2021/08/22 11:20:59;;;;;;;;;1.00;1.00;;;;;25.31;42.58;101205.53;5097635;27;45537;-62
2021/08/22 11:23:25;;;;;;;;;2.00;1.00;;;;;25.42;41.93;101198.66;5097855;27;45802;-61
2021/08/22 11:26:12;;;;;;;;;2.00;2.00;;;;;25.48;41.93;101200.47;5097933;27;45800;-62
2021/08/22 11:28:37;;;;;;;;;2.00;2.00;;;;;25.46;41.40;101205.25;5097968;27;45445;-61
2021/08/22 11:31:12;;;;;;;;;2.75;2.00;;;;;25.32;41.37;101208.03;5097173;27;45530;-61
2021/08/22 11:33:38;;;;;;;;;5.00;3.75;;;;;25.18;41.30;101203.78;5097516;27;46162;-61
2021/08/22 11:36:03;;;;;;;;;1.00;1.00;;;;;25.10;41.50;101204.03;5097491;27;45423;-62